Terminal Aerodrome Forecast
Issued by NWS

Home | Current Version | Previous Version | Text Only | Print | Product List | Glossary On
Versions: 1 2 3 4 5 6 7 8 9 10 11 12 13 14 15 16 17 18 19 20 21 22 23 24 25 26 27 28 29 30 31 32 33 34 35 36 37 38 39 40 41 42 43 44 45 46 47
000
FTUS44 KHGX 140557 CCA
TAFSGR
TAF COR
KSGR 140557Z 1406/1506 11006KT P6SM FEW009 BKN035
     FM140800 12007KT P6SM SCT009 SCT015 OVC025
     FM141000 13008KT P6SM SCT008 BKN015 OVC025
     FM141500 15011KT P6SM SCT010 BKN025
     FM141800 16013G23KT P6SM BKN035
     FM142300 15006KT P6SM BKN035
     FM150500 15005KT P6SM SCT015 BKN025=

USA.gov is the U.S. government's official web portal to all federal, state and local government web resources and services.